Time;durP1;ratioP1;P1;durP2;ratioP2;P2;SDS_P1;SDS_P2;PMS_P1;PMS_P2;Temp;Humidity;BMP_temperature;BMP_pressure;BME280_temperature;BME280_humidity;BME280_pressure;Samples;Min_cycle;Max_cycle;Signal;HPM_P1;HPM_P2
2023/03/14 00:00:13;;;;;;;0.28;0.20;;;;;;;8.34;100.00;94355.38;1014794;29;20036;-71
2023/03/14 00:00:44;;;;;;;0.00;0.00;;;;;;;8.29;100.00;94367.75;1014235;29;20152;-71
2023/03/14 00:01:16;;;;;;;1.52;0.20;;;;;;;8.29;100.00;94372.97;1014774;29;20284;-71
2023/03/14 00:01:47;;;;;;;0.20;0.10;;;;;;;8.27;100.00;94370.63;1014613;29;20047;-72
2023/03/14 00:02:17;;;;;;;0.73;0.20;;;;;;;8.27;100.00;94376.63;1011013;29;20273;-71
2023/03/14 00:02:54;;;;;;;0.38;0.20;;;;;;;8.26;100.00;94375.09;1011140;29;20817;-71
2023/03/14 00:03:24;;;;;;;0.52;0.10;;;;;;;8.23;100.00;94386.09;1010978;29;20033;-72
2023/03/14 00:03:54;;;;;;;0.63;0.20;;;;;;;8.27;100.00;94383.69;1011720;29;20383;-70
2023/03/14 00:04:25;;;;;;;0.35;0.28;;;;;;;8.25;100.00;94384.00;1010858;29;20514;-71
2023/03/14 00:04:56;;;;;;;1.75;0.30;;;;;;;8.25;100.00;94391.06;1007203;29;20044;-70
2023/03/14 00:05:26;;;;;;;0.45;0.28;;;;;;;8.26;100.00;94385.53;1010297;29;20032;-72
2023/03/14 00:05:57;;;;;;;1.55;0.20;;;;;;;8.26;100.00;94388.16;1015951;29;20123;-70
2023/03/14 00:06:27;;;;;;;0.68;0.25;;;;;;;8.25;100.00;94391.84;1018589;29;20377;-71
2023/03/14 00:06:58;;;;;;;0.80;0.10;;;;;;;8.27;100.00;94396.75;1018665;29;20032;-71
2023/03/14 00:07:31;;;;;;;0.20;0.20;;;;;;;8.30;100.00;94403.28;1011532;29;20494;-71
2023/03/14 00:08:02;;;;;;;0.32;0.32;;;;;;;8.27;100.00;94402.75;1011127;29;20107;-70
2023/03/14 00:08:32;;;;;;;0.30;0.20;;;;;;;8.30;100.00;94400.66;1015182;29;20276;-71
2023/03/14 00:09:03;;;;;;;0.30;0.10;;;;;;;8.31;100.00;94404.81;1013227;29;20522;-71
2023/03/14 00:09:33;;;;;;;0.90;0.22;;;;;;;8.32;100.00;94403.78;1017564;29;20034;-71
2023/03/14 00:10:08;;;;;;;0.35;0.20;;;;;;;8.34;100.00;94406.88;1014603;29;20036;-71
2023/03/14 00:10:38;;;;;;;4.30;0.30;;;;;;;8.33;100.00;94400.88;1007438;29;20123;-72
2023/03/14 00:11:13;;;;;;;1.05;0.30;;;;;;;8.36;100.00;94404.78;1006955;29;20291;-71
2023/03/14 00:11:44;;;;;;;0.15;0.15;;;;;;;8.39;100.00;94415.47;1008274;29;20032;-70
2023/03/14 00:12:14;;;;;;;0.43;0.20;;;;;;;8.41;100.00;94408.09;1007977;29;20285;-71
2023/03/14 00:12:45;;;;;;;0.75;0.40;;;;;;;8.39;100.00;94399.00;1012827;29;20036;-70
2023/03/14 00:13:15;;;;;;;0.55;0.10;;;;;;;8.47;100.00;94395.75;1007191;29;20040;-71
2023/03/14 00:13:52;;;;;;;0.25;0.22;;;;;;;8.41;100.00;94391.66;1006974;29;20062;-71
2023/03/14 00:14:23;;;;;;;0.35;0.30;;;;;;;8.46;100.00;94394.22;1006769;29;20103;-70
2023/03/14 00:14:53;;;;;;;0.38;0.10;;;;;;;8.49;100.00;94397.03;1010325;29;20806;-72
2023/03/14 00:15:23;;;;;;;1.23;0.20;;;;;;;8.51;100.00;94394.13;1013959;29;20036;-70
2023/03/14 00:15:54;;;;;;;0.30;0.30;;;;;;;8.52;100.00;94392.28;1014840;29;20024;-70
2023/03/14 00:16:24;;;;;;;0.13;0.13;;;;;;;8.51;100.00;94391.50;1014674;29;20024;-70
2023/03/14 00:16:55;;;;;;;1.02;0.35;;;;;;;8.52;100.00;94387.84;1010738;29;20103;-71
2023/03/14 00:17:26;;;;;;;0.98;0.30;;;;;;;8.51;100.00;94386.28;1011148;29;20514;-70
2023/03/14 00:17:57;;;;;;;0.20;0.20;;;;;;;8.48;100.00;94390.25;1012559;29;20036;-72
2023/03/14 00:18:27;;;;;;;0.28;0.15;;;;;;;8.48;100.00;94387.66;1013356;29;20277;-70
2023/03/14 00:18:59;;;;;;;0.95;0.30;;;;;;;8.41;100.00;94365.50;1018700;29;20057;-70
2023/03/14 00:19:29;;;;;;;0.35;0.20;;;;;;;8.48;100.00;94386.84;1010817;29;20028;-71
2023/03/14 00:20:07;;;;;;;0.10;0.10;;;;;;;8.49;100.00;94389.19;1006943;29;20799;-71
2023/03/14 00:20:38;;;;;;;0.40;0.20;;;;;;;8.51;100.00;94386.28;1006641;29;20042;-70
2023/03/14 00:21:09;;;;;;;0.10;0.10;;;;;;;8.50;100.00;94384.75;1007876;29;20274;-70
2023/03/14 00:21:40;;;;;;;0.45;0.20;;;;;;;8.50;100.00;94384.75;1010752;29;20519;-70
2023/03/14 00:22:10;;;;;;;0.10;0.10;;;;;;;8.50;100.00;94384.75;1010838;29;20261;-71
2023/03/14 00:22:41;;;;;;;0.10;0.10;;;;;;;8.45;100.00;94382.19;1018721;29;20023;-71
2023/03/14 00:23:11;;;;;;;0.20;0.20;;;;;;;8.48;100.00;94381.63;1015321;29;20020;-72
2023/03/14 00:23:42;;;;;;;0.30;0.30;;;;;;;8.47;100.00;94372.22;1014610;29;20020;-71
2023/03/14 00:24:12;;;;;;;0.70;0.17;;;;;;;8.54;100.00;94383.09;1018772;29;20074;-70
2023/03/14 00:24:43;;;;;;;1.38;0.20;;;;;;;8.55;100.00;94378.66;1018518;29;20026;-69
2023/03/14 00:25:13;;;;;;;0.65;0.15;;;;;;;8.50;100.00;94371.66;1014183;29;20490;-73
2023/03/14 00:25:43;;;;;;;0.17;0.15;;;;;;;8.56;100.00;94382.84;1010679;29;20502;-70
2023/03/14 00:26:16;;;;;;;2.28;0.20;;;;;;;8.55;100.00;94386.50;1014646;29;20120;-70
2023/03/14 00:26:46;;;;;;;0.93;0.30;;;;;;;8.54;100.00;94383.09;1006765;29;20068;-70
2023/03/14 00:27:17;;;;;;;0.10;0.10;;;;;;;8.56;100.00;94388.84;1006784;29;20302;-71
2023/03/14 00:27:50;;;;;;;0.10;0.10;;;;;;;8.41;100.00;94365.50;1002570;29;20029;-71
2023/03/14 00:28:20;;;;;;;0.40;0.22;;;;;;;8.56;100.00;94380.22;1006787;29;20063;-70
2023/03/14 00:28:51;;;;;;;2.17;0.10;;;;;;;8.52;100.00;94369.56;1006388;29;20292;-70
2023/03/14 00:29:22;;;;;;;0.47;0.45;;;;;;;8.47;100.00;94361.78;1007428;29;20013;-72
2023/03/14 00:29:52;;;;;;;2.78;0.40;;;;;;;8.55;100.00;94392.53;1007034;29;20025;-70
2023/03/14 00:30:23;;;;;;;0.88;0.13;;;;;;;8.56;100.00;94375.00;1006680;29;20025;-70
2023/03/14 00:30:53;;;;;;;1.38;0.20;;;;;;;8.57;100.00;94379.16;1003111;29;20037;-71
2023/03/14 00:31:24;;;;;;;0.75;0.30;;;;;;;8.51;100.00;94360.13;1007028;29;20024;-70
2023/03/14 00:31:54;;;;;;;0.38;0.22;;;;;;;8.50;100.00;94356.75;1002966;29;20781;-71
2023/03/14 00:32:24;;;;;;;0.63;0.20;;;;;;;8.54;100.00;94377.88;1003359;29;20025;-70
2023/03/14 00:32:55;;;;;;;0.13;0.13;;;;;;;8.54;100.00;94364.81;1006646;29;20065;-70
2023/03/14 00:33:25;;;;;;;0.65;0.30;;;;;;;8.53;100.00;94368.50;1003048;29;20026;-71
2023/03/14 00:33:56;;;;;;;0.57;0.20;;;;;;;8.50;100.00;94367.22;1006587;29;20594;-70
2023/03/14 00:34:30;;;;;;;0.22;0.20;;;;;;;8.51;100.00;94365.38;1007070;29;20025;-70
2023/03/14 00:35:00;;;;;;;0.22;0.20;;;;;;;8.51;100.00;94373.22;1007242;29;20029;-71
2023/03/14 00:35:31;;;;;;;0.73;0.20;;;;;;;8.50;100.00;94374.28;1010144;29;20359;-71
2023/03/14 00:36:04;;;;;;;0.25;0.20;;;;;;;8.44;100.00;94368.34;1007396;29;20036;-72
2023/03/14 00:36:34;;;;;;;0.20;0.20;;;;;;;8.48;100.00;94368.53;1011434;29;20029;-71
2023/03/14 00:37:05;;;;;;;0.20;0.20;;;;;;;8.52;100.00;94373.97;1016118;29;20280;-70
2023/03/14 00:37:35;;;;;;;1.00;0.28;;;;;;;8.52;100.00;94379.22;1014344;29;20024;-70
2023/03/14 00:38:06;;;;;;;0.20;0.20;;;;;;;8.48;100.00;94374.56;1007126;29;20044;-71
2023/03/14 00:38:36;;;;;;;0.38;0.30;;;;;;;8.43;100.00;94360.78;1010856;29;20020;-71
2023/03/14 00:39:07;;;;;;;0.10;0.10;;;;;;;8.50;100.00;94376.91;1010779;29;20025;-70
2023/03/14 00:39:37;;;;;;;0.55;0.28;;;;;;;8.49;100.00;94380.56;1010711;29;20769;-72
2023/03/14 00:40:08;;;;;;;0.38;0.20;;;;;;;8.50;100.00;94374.28;1010807;29;20127;-71
2023/03/14 00:40:39;;;;;;;0.68;0.50;;;;;;;8.47;100.00;94380.84;1007728;29;20037;-70
2023/03/14 00:41:12;;;;;;;0.10;0.10;;;;;;;8.46;100.00;94373.28;1010628;29;21038;-70
2023/03/14 00:41:42;;;;;;;0.30;0.30;;;;;;;8.52;100.00;94387.06;1007234;29;20036;-73
2023/03/14 00:42:13;;;;;;;1.67;0.25;;;;;;;8.50;100.00;94375.06;1012711;29;20268;-70
2023/03/14 00:42:43;;;;;;;0.43;0.30;;;;;;;8.54;100.00;94377.88;1014592;29;20040;-70
2023/03/14 00:43:14;;;;;;;1.08;0.40;;;;;;;8.48;100.00;94374.56;1007004;29;20033;-71
2023/03/14 00:43:44;;;;;;;0.30;0.30;;;;;;;8.49;100.00;94377.97;1010542;29;20039;-71
2023/03/14 00:44:15;;;;;;;0.40;0.17;;;;;;;8.45;100.00;94380.38;1006901;29;20483;-70
2023/03/14 00:44:45;;;;;;;1.23;0.20;;;;;;;8.53;100.00;94397.25;1014713;29;20040;-70
2023/03/14 00:45:15;;;;;;;0.10;0.10;;;;;;;8.55;100.00;94397.75;1006396;29;20787;-69
2023/03/14 00:45:46;;;;;;;0.10;0.10;;;;;;;8.54;100.00;94395.41;1008134;29;20395;-70
2023/03/14 00:46:16;;;;;;;0.43;0.10;;;;;;;8.53;100.00;94399.88;1011047;29;20047;-71
2023/03/14 00:46:47;;;;;;;0.45;0.30;;;;;;;8.54;100.00;94403.25;1014721;29;20084;-70
2023/03/14 00:47:17;;;;;;;0.30;0.30;;;;;;;8.56;100.00;94409.75;1014747;29;20052;-70
2023/03/14 00:47:48;;;;;;;0.32;0.20;;;;;;;8.38;100.00;94379.13;1016459;29;20096;-71
2023/03/14 00:48:18;;;;;;;0.30;0.30;;;;;;;8.52;100.00;94408.78;1018546;29;20024;-71
2023/03/14 00:48:49;;;;;;;0.30;0.30;;;;;;;8.47;100.00;94399.13;1014516;29;20028;-70
2023/03/14 00:49:19;;;;;;;0.32;0.20;;;;;;;8.43;100.00;94395.53;1014617;29;20048;-71
2023/03/14 00:49:50;;;;;;;0.40;0.10;;;;;;;8.48;100.00;94407.75;1010585;29;20100;-70
2023/03/14 00:50:20;;;;;;;0.10;0.10;;;;;;;8.50;100.00;94405.66;1011006;29;20037;-70
2023/03/14 00:50:51;;;;;;;0.10;0.10;;;;;;;8.52;100.00;94413.19;1012744;29;20036;-70
2023/03/14 00:51:21;;;;;;;0.10;0.10;;;;;;;8.49;100.00;94422.41;1018658;29;20035;-71
2023/03/14 00:51:52;;;;;;;0.00;0.00;;;;;;;8.48;100.00;94415.59;1018422;29;20078;-70
2023/03/14 00:52:22;;;;;;;2.05;0.80;;;;;;;8.46;100.00;94415.13;1022408;29;20094;-73
2023/03/14 00:52:52;;;;;;;0.03;0.03;;;;;;;8.44;100.00;94409.38;1022674;29;20557;-71
2023/03/14 00:53:23;;;;;;;0.10;0.10;;;;;;;8.45;100.00;94413.53;1018589;29;20168;-71
2023/03/14 00:53:53;;;;;;;0.57;0.20;;;;;;;8.43;100.00;94413.84;1010417;29;20036;-71
2023/03/14 00:54:24;;;;;;;0.10;0.10;;;;;;;8.39;100.00;94409.47;1007015;29;20029;-71
2023/03/14 00:54:54;;;;;;;0.00;0.00;;;;;;;8.41;100.00;94420.41;1006887;29;20492;-70
2023/03/14 00:55:25;;;;;;;1.85;0.10;;;;;;;8.42;100.00;94420.13;1010327;29;20033;-71
2023/03/14 00:55:55;;;;;;;0.40;0.10;;;;;;;8.41;100.00;94417.78;1014406;29;20042;-70
2023/03/14 00:56:26;;;;;;;0.38;0.20;;;;;;;8.34;100.00;94412.09;1010778;29;20064;-71
2023/03/14 00:56:56;;;;;;;1.45;0.28;;;;;;;8.38;100.00;94420.97;1014845;29;20028;-71
2023/03/14 00:57:27;;;;;;;0.57;0.20;;;;;;;8.29;100.00;94404.34;1014614;29;20040;-71
2023/03/14 00:57:57;;;;;;;0.63;0.20;;;;;;;8.36;100.00;94420.44;1014573;29;20087;-71
2023/03/14 00:58:27;;;;;;;0.10;0.10;;;;;;;8.39;100.00;94417.31;1018704;29;20102;-71
2023/03/14 00:58:58;;;;;;;0.30;0.30;;;;;;;8.37;100.00;94406.31;1018510;29;20035;-71
2023/03/14 00:59:28;;;;;;;0.43;0.10;;;;;;;8.32;100.00;94415.00;1010735;29;20036;-71
2023/03/14 00:59:59;;;;;;;1.30;0.20;;;;;;;8.33;100.00;94415.78;1014426;29;20027;-71
2023/03/14 01:00:32;;;;;;;1.42;0.10;;;;;;;8.26;100.00;94411.66;1010598;29;20033;-68
2023/03/14 01:01:09;;;;;;;0.47;0.22;;;;;;;8.28;100.00;94414.00;1005979;29;20036;-71
2023/03/14 01:01:41;;;;;;;0.20;0.20;;;;;;;8.27;100.00;94421.06;1010692;29;20826;-71
2023/03/14 01:02:12;;;;;;;0.10;0.10;;;;;;;8.25;100.00;94410.13;1010879;29;20336;-71
2023/03/14 01:02:42;;;;;;;0.10;0.10;;;;;;;8.24;100.00;94416.38;1011710;29;20304;-72
2023/03/14 01:03:13;;;;;;;0.08;0.00;;;;;;;8.19;100.00;94416.47;1014616;29;20044;-71
2023/03/14 01:03:43;;;;;;;0.10;0.10;;;;;;;8.23;100.00;94417.44;1018724;29;20090;-72
2023/03/14 01:04:14;;;;;;;0.28;0.20;;;;;;;8.24;100.00;94426.06;1014342;29;20129;-72
2023/03/14 01:04:44;;;;;;;1.90;0.47;;;;;;;8.25;100.00;94423.19;1010574;29;20033;-73
2023/03/14 01:05:15;;;;;;;0.10;0.10;;;;;;;8.24;100.00;94424.22;999174;29;20106;-70
2023/03/14 01:05:45;;;;;;;0.45;0.10;;;;;;;8.23;100.00;94421.91;1006434;29;20467;-73
2023/03/14 01:06:17;;;;;;;0.30;0.10;;;;;;;8.19;100.00;94421.69;1002766;29;20034;-74
2023/03/14 01:06:48;;;;;;;0.95;0.30;;;;;;;8.19;100.00;94421.69;1006599;29;20061;-72
2023/03/14 01:07:18;;;;;;;0.10;0.10;;;;;;;8.19;100.00;94416.47;1006771;29;21115;-72
2023/03/14 01:07:49;;;;;;;2.40;0.20;;;;;;;8.09;100.00;94405.34;1007411;29;20598;-72
2023/03/14 01:08:19;;;;;;;0.28;0.25;;;;;;;8.14;100.00;94413.91;1007068;29;20029;-73
2023/03/14 01:08:50;;;;;;;1.10;0.13;;;;;;;8.10;100.00;94415.53;1014946;29;20032;-73
2023/03/14 01:09:20;;;;;;;0.20;0.20;;;;;;;8.11;100.00;94417.06;1010794;29;20483;-74
2023/03/14 01:09:52;;;;;;;0.20;0.20;;;;;;;8.11;100.00;94417.06;1006896;29;20031;-73
2023/03/14 01:10:23;;;;;;;0.40;0.20;;;;;;;8.00;100.00;94410.41;1010812;29;20028;-73
2023/03/14 01:10:53;;;;;;;0.13;0.03;;;;;;;8.08;100.00;94437.75;1014194;29;20276;-74
2023/03/14 01:11:28;;;;;;;0.40;0.20;;;;;;;8.06;100.00;94418.97;1006816;29;20033;-73
2023/03/14 01:11:59;;;;;;;1.08;0.82;;;;;;;8.06;100.00;94424.19;1006835;29;20033;-69
2023/03/14 01:12:29;;;;;;;2.75;1.08;;;;;;;8.01;100.00;94411.97;1006647;29;20276;-76
2023/03/14 01:13:00;;;;;;;0.90;0.10;;;;;;;8.03;100.00;94428.13;1010992;29;20583;-72
2023/03/14 01:13:30;;;;;;;0.52;0.17;;;;;;;8.03;100.00;94417.69;1014531;29;20032;-72
2023/03/14 01:14:01;;;;;;;0.95;0.15;;;;;;;8.03;100.00;94415.06;1018143;29;20043;-73
2023/03/14 01:14:31;;;;;;;0.30;0.20;;;;;;;8.02;100.00;94424.75;1010612;29;20021;-72
2023/03/14 01:15:02;;;;;;;0.52;0.13;;;;;;;7.92;100.00;94418.88;1010388;29;20064;-73
2023/03/14 01:15:33;;;;;;;0.22;0.15;;;;;;;7.98;100.00;94425.56;1006116;29;20033;-72
2023/03/14 01:16:06;;;;;;;0.43;0.20;;;;;;;7.97;100.00;94431.84;1006839;29;20080;-69
2023/03/14 01:16:36;;;;;;;0.40;0.20;;;;;;;7.95;100.00;94426.94;1010390;29;20272;-72
2023/03/14 01:17:07;;;;;;;1.30;0.17;;;;;;;7.94;100.00;94429.78;1013993;29;20494;-72
2023/03/14 01:17:40;;;;;;;1.27;0.35;;;;;;;7.92;100.00;94437.16;1010725;29;20029;-72
2023/03/14 01:18:11;;;;;;;0.57;0.10;;;;;;;7.89;100.00;94430.63;1010943;29;20032;-72
2023/03/14 01:18:43;;;;;;;0.15;0.10;;;;;;;7.89;100.00;94424.66;1011016;29;20268;-72
2023/03/14 01:19:13;;;;;;;0.17;0.17;;;;;;;7.90;100.00;94428.81;1010716;29;20054;-71
2023/03/14 01:19:44;;;;;;;0.13;0.08;;;;;;;7.90;100.00;94442.63;1009768;29;20276;-71
2023/03/14 01:20:14;;;;;;;1.13;0.35;;;;;;;7.87;100.00;94439.81;1007341;29;20072;-71
2023/03/14 01:20:45;;;;;;;0.75;0.20;;;;;;;7.86;100.00;94441.63;1006683;29;20100;-73
2023/03/14 01:21:23;;;;;;;2.83;0.20;;;;;;;7.83;100.00;94438.81;1002768;29;20041;-72
2023/03/14 01:21:53;;;;;;;0.47;0.10;;;;;;;7.76;100.00;94428.69;1003002;29;20474;-71
2023/03/14 01:22:24;;;;;;;0.47;0.10;;;;;;;7.66;100.00;94423.56;1006739;29;20356;-71
2023/03/14 01:22:54;;;;;;;0.73;0.20;;;;;;;7.78;100.00;94442.25;1003737;29;20028;-72
2023/03/14 01:23:25;;;;;;;0.25;0.20;;;;;;;7.78;100.00;94445.66;1014485;29;20024;-72
2023/03/14 01:23:56;;;;;;;0.40;0.17;;;;;;;7.77;100.00;94448.50;1014438;29;20027;-72
2023/03/14 01:24:26;;;;;;;0.10;0.10;;;;;;;7.74;100.00;94447.22;1018455;29;20028;-72
2023/03/14 01:24:57;;;;;;;0.20;0.00;;;;;;;7.72;100.00;94441.53;1014212;29;20353;-72
2023/03/14 01:25:27;;;;;;;0.63;0.15;;;;;;;7.64;100.00;94434.28;1014063;29;20028;-72
2023/03/14 01:25:57;;;;;;;1.88;0.10;;;;;;;7.68;100.00;94445.75;1018254;29;20019;-72
2023/03/14 01:26:30;;;;;;;0.20;0.20;;;;;;;7.70;100.00;94446.22;1018222;29;20019;-72
2023/03/14 01:27:00;;;;;;;0.20;0.17;;;;;;;7.64;100.00;94447.31;1010401;29;20028;-72
2023/03/14 01:27:31;;;;;;;0.35;0.20;;;;;;;7.68;100.00;94447.56;1010521;29;20288;-72
2023/03/14 01:28:01;;;;;;;0.98;0.13;;;;;;;7.65;100.00;94443.69;1010795;29;20064;-74
2023/03/14 01:28:31;;;;;;;0.17;0.17;;;;;;;7.65;100.00;94455.97;1006894;29;20013;-71
2023/03/14 01:29:03;;;;;;;0.82;0.17;;;;;;;7.64;100.00;94451.78;1010501;29;20032;-72
2023/03/14 01:29:33;;;;;;;0.25;0.17;;;;;;;7.65;100.00;94445.50;1003083;29;20018;-73
2023/03/14 01:30:04;;;;;;;1.25;0.25;;;;;;;7.64;100.00;94449.16;1003252;29;20250;-72
2023/03/14 01:30:35;;;;;;;0.00;0.00;;;;;;;7.61;100.00;94454.94;1010406;29;20021;-72
2023/03/14 01:31:06;;;;;;;0.32;0.10;;;;;;;7.62;100.00;94446.06;1007292;29;20258;-73
2023/03/14 01:31:37;;;;;;;0.43;0.10;;;;;;;7.61;100.00;94445.25;1014415;29;20064;-73
2023/03/14 01:32:07;;;;;;;0.20;0.20;;;;;;;7.54;100.00;94439.59;1014349;29;20319;-73
2023/03/14 01:32:38;;;;;;;2.35;0.20;;;;;;;7.57;100.00;94446.88;1015393;29;20024;-73
2023/03/14 01:33:08;;;;;;;0.40;0.40;;;;;;;7.54;100.00;94445.59;1010501;29;20758;-73
2023/03/14 01:33:39;;;;;;;0.10;0.10;;;;;;;7.52;100.00;94436.50;1006636;29;20084;-72
2023/03/14 01:34:09;;;;;;;0.25;0.20;;;;;;;7.54;100.00;94436.97;1006756;29;20021;-72
2023/03/14 01:34:40;;;;;;;0.20;0.20;;;;;;;7.55;100.00;94443.78;1002823;29;20041;-72
2023/03/14 01:35:10;;;;;;;0.98;0.20;;;;;;;7.53;100.00;94449.25;1002507;29;20021;-76
2023/03/14 01:35:40;;;;;;;5.13;0.22;;;;;;;7.50;100.00;94451.63;1006250;29;20093;-72
2023/03/14 01:36:11;;;;;;;0.10;0.10;;;;;;;7.44;100.00;94439.69;1010616;29;20041;-72
2023/03/14 01:36:42;;;;;;;0.40;0.20;;;;;;;7.46;100.00;94440.19;1014623;29;20088;-72
2023/03/14 01:37:12;;;;;;;2.33;0.73;;;;;;;7.47;100.00;94446.97;1010425;29;20028;-73
2023/03/14 01:37:42;;;;;;;0.38;0.13;;;;;;;7.42;100.00;94439.19;1010643;29;20072;-72
2023/03/14 01:38:13;;;;;;;1.73;0.28;;;;;;;7.35;100.00;94429.06;1006783;29;20061;-74
2023/03/14 01:38:43;;;;;;;0.13;0.10;;;;;;;7.40;100.00;94446.50;1007888;29;20021;-73
2023/03/14 01:39:14;;;;;;;1.20;0.10;;;;;;;7.36;100.00;94451.50;1006897;29;20540;-73
2023/03/14 01:39:46;;;;;;;0.10;0.10;;;;;;;7.36;100.00;94445.50;1003063;29;20026;-72
2023/03/14 01:40:17;;;;;;;0.00;0.00;;;;;;;7.36;100.00;94441.06;1002959;29;20018;-72
2023/03/14 01:40:48;;;;;;;0.25;0.25;;;;;;;7.35;100.00;94443.94;1006458;29;20688;-74
2023/03/14 01:41:20;;;;;;;0.35;0.10;;;;;;;7.30;100.00;94435.09;1003279;29;20270;-73
2023/03/14 01:41:51;;;;;;;0.75;0.30;;;;;;;7.27;100.00;94432.25;1008887;29;20119;-72
2023/03/14 01:42:21;;;;;;;1.20;0.40;;;;;;;7.31;100.00;94438.50;1010479;29;21163;-72
2023/03/14 01:42:56;;;;;;;0.30;0.10;;;;;;;7.24;100.00;94431.00;1014465;29;20055;-72
2023/03/14 01:43:26;;;;;;;0.35;0.10;;;;;;;7.28;100.00;94432.00;1010856;29;20025;-72
2023/03/14 01:43:57;;;;;;;1.27;0.20;;;;;;;7.26;100.00;94435.91;1006332;29;20344;-73
2023/03/14 01:44:27;;;;;;;0.55;0.10;;;;;;;7.26;100.00;94441.13;1010671;29;20061;-73
2023/03/14 01:44:59;;;;;;;1.90;0.13;;;;;;;7.25;100.00;94435.16;1010575;29;20032;-73
2023/03/14 01:45:57;;;;;;;0.15;0.15;;;;;;;7.23;100.00;94433.84;1010837;29;20512;-73
2023/03/14 01:46:29;;;;;;;1.00;0.20;;;;;;;7.21;100.00;94436.75;1014472;29;20260;-73
2023/03/14 01:46:59;;;;;;;0.10;0.10;;;;;;;7.24;100.00;94430.19;1014390;29;20833;-72
2023/03/14 01:47:30;;;;;;;1.17;0.20;;;;;;;7.15;100.00;94416.97;1026063;28;20325;-73
2023/03/14 01:48:00;;;;;;;1.60;0.28;;;;;;;7.22;100.00;94424.47;1025912;28;20493;-72
2023/03/14 01:48:35;;;;;;;1.50;0.10;;;;;;;7.16;100.00;94409.91;1018246;29;20031;-72
2023/03/14 01:49:16;;;;;;;0.30;0.17;;;;;;;7.19;100.00;94399.72;1018114;29;20031;-73
2023/03/14 01:50:03;;;;;;;1.48;0.22;;;;;;;7.17;100.00;94393.97;1014275;29;20264;-73
2023/03/14 01:50:33;;;;;;;0.32;0.22;;;;;;;7.09;100.00;94373.72;1014315;29;20706;-73
2023/03/14 01:51:05;;;;;;;3.03;0.20;;;;;;;7.20;100.00;94390.06;1002764;29;20331;-73
2023/03/14 01:52:11;;;;;;;0.28;0.10;;;;;;;7.19;100.00;94380.69;1005319;29;20504;-73
2023/03/14 01:52:45;;;;;;;0.63;0.10;;;;;;;7.17;100.00;94369.72;995986;29;20400;-74
2023/03/14 01:53:15;;;;;;;1.88;0.20;;;;;;;7.16;100.00;94366.34;998835;29;20282;-73
2023/03/14 01:53:46;;;;;;;0.20;0.15;;;;;;;7.16;100.00;94366.34;1000443;29;20301;-74
2023/03/14 01:54:41;;;;;;;1.13;0.13;;;;;;;7.07;100.00;94344.50;997874;29;20041;-73
2023/03/14 01:55:17;;;;;;;0.17;0.17;;;;;;;7.15;100.00;94354.38;995807;29;20064;-73
2023/03/14 01:55:48;;;;;;;0.20;0.20;;;;;;;7.17;100.00;94348.84;1008071;29;20345;-72
2023/03/14 01:56:18;;;;;;;1.67;0.30;;;;;;;7.16;100.00;94340.25;1014222;29;20406;-73
2023/03/14 01:56:53;;;;;;;0.30;0.10;;;;;;;7.10;100.00;94323.09;1014926;29;20406;-73
2023/03/14 01:57:28;;;;;;;0.28;0.13;;;;;;;7.17;100.00;94331.38;1015167;29;20023;-72
2023/03/14 01:58:03;;;;;;;0.10;0.10;;;;;;;7.16;100.00;94327.22;1011307;29;20292;-74
2023/03/14 01:58:34;;;;;;;0.63;0.30;;;;;;;7.16;100.00;94316.78;1003782;29;20281;-73
2023/03/14 01:59:05;;;;;;;1.45;0.75;;;;;;;7.13;100.00;94306.91;1011086;29;20325;-73
2023/03/14 01:59:35;;;;;;;2.60;0.17;;;;;;;7.09;100.00;94295.47;1007677;29;20272;-73
2023/03/14 02:00:11;;;;;;;0.30;0.10;;;;;;;7.13;100.00;94303.53;999748;29;20301;-72
2023/03/14 02:00:42;;;;;;;0.10;0.10;;;;;;;7.15;100.00;94299.59;1006269;29;20032;-73
2023/03/14 02:01:14;;;;;;;0.98;0.20;;;;;;;7.11;100.00;94288.16;1006792;29;20269;-74
2023/03/14 02:01:44;;;;;;;0.25;0.08;;;;;;;7.17;100.00;94286.25;1003759;29;20057;-74
2023/03/14 02:02:15;;;;;;;0.20;0.10;;;;;;;7.11;100.00;94284.75;1007593;29;20659;-73
2023/03/14 02:03:06;;;;;;;0.10;0.10;;;;;;;7.16;100.00;94282.09;1011084;29;20044;-73
2023/03/14 02:03:52;;;;;;;0.10;0.10;;;;;;;7.10;100.00;94268.31;1011611;29;20021;-73
2023/03/14 02:04:23;;;;;;;1.95;0.20;;;;;;;7.14;100.00;94279.75;1008933;29;20292;-73
2023/03/14 02:04:54;;;;;;;2.08;0.10;;;;;;;7.13;100.00;94269.63;1011157;29;20300;-73
2023/03/14 02:05:26;;;;;;;0.30;0.10;;;;;;;7.13;100.00;94265.16;1010753;29;20017;-73
2023/03/14 02:05:59;;;;;;;0.10;0.10;;;;;;;7.10;100.00;94260.50;1007135;29;20406;-73
2023/03/14 02:06:35;;;;;;;0.10;0.10;;;;;;;7.12;100.00;94262.84;1007598;29;20329;-73
2023/03/14 02:07:07;;;;;;;2.38;0.10;;;;;;;7.11;100.00;94256.06;1003541;29;20652;-72
2023/03/14 02:07:42;;;;;;;2.50;0.20;;;;;;;7.10;100.00;94255.28;1011140;29;20746;-73
2023/03/14 02:08:22;;;;;;;0.47;0.28;;;;;;;7.06;100.00;94249.06;1007299;29;20273;-73
2023/03/14 02:08:52;;;;;;;0.10;0.10;;;;;;;7.09;100.00;94246.69;1007280;29;20293;-72
2023/03/14 02:09:23;;;;;;;0.70;0.10;;;;;;;7.04;100.00;94240.75;1005181;29;20266;-73
2023/03/14 02:09:53;;;;;;;0.47;0.17;;;;;;;7.08;100.00;94239.16;1007475;29;20056;-73
2023/03/14 02:10:27;;;;;;;0.28;0.10;;;;;;;7.04;100.00;94225.91;1011527;29;20111;-73
2023/03/14 02:10:57;;;;;;;0.28;0.20;;;;;;;7.02;100.00;94219.41;1011014;29;20060;-73
2023/03/14 02:11:28;;;;;;;0.25;0.20;;;;;;;7.09;100.00;94222.44;1007380;29;20381;-71
2023/03/14 02:11:58;;;;;;;0.50;0.20;;;;;;;7.09;100.00;94222.44;1003743;29;20178;-72
2023/03/14 02:12:29;;;;;;;0.35;0.10;;;;;;;7.09;100.00;94222.44;998966;29;20038;-73
2023/03/14 02:13:01;;;;;;;1.55;0.10;;;;;;;7.08;100.00;94221.66;1010023;29;20485;-72
2023/03/14 02:13:32;;;;;;;0.40;0.28;;;;;;;7.09;100.00;94222.44;1010084;29;20021;-72
2023/03/14 02:14:02;;;;;;;0.20;0.20;;;;;;;7.04;100.00;94212.84;1011238;29;20308;-72
2023/03/14 02:14:33;;;;;;;0.98;0.20;;;;;;;7.07;100.00;94217.50;1007157;29;20025;-71
2023/03/14 02:15:04;;;;;;;0.20;0.20;;;;;;;7.03;100.00;94208.66;1013722;29;20040;-72
2023/03/14 02:15:35;;;;;;;1.15;0.10;;;;;;;7.09;100.00;94222.44;1003043;29;20274;-72
2023/03/14 02:16:06;;;;;;;1.38;0.17;;;;;;;7.10;100.00;94226.59;1000148;29;20126;-72
2023/03/14 02:16:36;;;;;;;0.43;0.30;;;;;;;7.08;100.00;94229.50;999800;29;20029;-71
2023/03/14 02:17:07;;;;;;;1.45;0.15;;;;;;;7.09;100.00;94225.06;1009296;29;20067;-72
2023/03/14 02:17:37;;;;;;;0.17;0.17;;;;;;;7.04;100.00;94223.28;1019518;29;20453;-73
2023/03/14 02:18:08;;;;;;;0.10;0.10;;;;;;;7.08;100.00;94231.34;1010084;29;20487;-72
2023/03/14 02:18:40;;;;;;;0.40;0.20;;;;;;;7.06;100.00;94225.59;1011511;29;20028;-72
2023/03/14 02:19:10;;;;;;;0.95;0.10;;;;;;;7.05;100.00;94232.66;1014557;29;20032;-72
2023/03/14 02:19:52;;;;;;;0.38;0.20;;;;;;;7.09;100.00;94238.88;1008849;29;20269;-73
2023/03/14 02:20:52;;;;;;;0.00;0.00;;;;;;;7.08;100.00;94246.97;1007675;29;20028;-72
2023/03/14 02:21:58;;;;;;;0.32;0.20;;;;;;;7.11;100.00;94256.06;994423;29;20288;-72
2023/03/14 02:22:28;;;;;;;2.00;0.10;;;;;;;7.09;100.00;94264.19;1013858;29;20263;-72
2023/03/14 02:22:59;;;;;;;1.23;0.28;;;;;;;6.90;100.00;94237.25;1015850;29;20260;-72
2023/03/14 02:23:29;;;;;;;0.30;0.20;;;;;;;7.08;100.00;94271.22;1015045;29;20023;-72
2023/03/14 02:24:05;;;;;;;0.10;0.10;;;;;;;7.09;100.00;94274.59;1015935;29;20035;-72
2023/03/14 02:25:03;;;;;;;0.30;0.10;;;;;;;7.08;100.00;94273.06;1011960;29;20103;-72
2023/03/14 02:25:43;;;;;;;2.95;0.30;;;;;;;7.09;100.00;94275.38;1011424;29;20634;-72
2023/03/14 02:26:15;;;;;;;0.28;0.28;;;;;;;7.08;100.00;94278.28;1008871;29;20852;-71
2023/03/14 02:27:02;;;;;;;0.40;0.13;;;;;;;7.08;100.00;94270.44;1015602;29;20271;-72
2023/03/14 02:27:33;;;;;;;1.45;0.20;;;;;;;7.05;100.00;94276.22;1019517;29;20260;-72
2023/03/14 02:28:03;;;;;;;0.30;0.30;;;;;;;7.04;100.00;94259.00;1012073;29;20319;-72
2023/03/14 02:28:34;;;;;;;0.25;0.20;;;;;;;7.07;100.00;94271.47;1008278;29;20497;-72
2023/03/14 02:29:04;;;;;;;0.17;0.17;;;;;;;7.07;100.00;94266.28;1004325;29;20096;-72
2023/03/14 02:29:36;;;;;;;0.40;0.15;;;;;;;7.08;100.00;94270.44;1004652;29;20013;-71
2023/03/14 02:30:17;;;;;;;0.65;0.30;;;;;;;7.07;100.00;94271.47;1004715;29;20017;-72
2023/03/14 02:30:48;;;;;;;0.25;0.08;;;;;;;7.02;100.00;94261.13;1004331;29;20304;-72
2023/03/14 02:31:21;;;;;;;0.10;0.10;;;;;;;7.07;100.00;94271.47;1004563;29;20254;-72